sensor_id;sensor_type;location;lat;lon;timestamp;P1;durP1;ratioP1;P2;durP2;ratioP2
37407;SDS011;24866;50.248;8.252;2022-07-29T00:02:01;11.20;;;4.07;;
37407;SDS011;24866;50.248;8.252;2022-07-29T00:04:31;9.10;;;4.30;;
37407;SDS011;24866;50.248;8.252;2022-07-29T00:07:03;9.20;;;4.18;;
37407;SDS011;24866;50.248;8.252;2022-07-29T00:09:33;10.07;;;3.60;;
37407;SDS011;24866;50.248;8.252;2022-07-29T00:12:04;7.15;;;3.17;;
37407;SDS011;24866;50.248;8.252;2022-07-29T00:14:34;8.88;;;3.70;;
37407;SDS011;24866;50.248;8.252;2022-07-29T00:17:05;8.93;;;4.50;;
37407;SDS011;24866;50.248;8.252;2022-07-29T00:19:35;9.10;;;4.20;;
37407;SDS011;24866;50.248;8.252;2022-07-29T00:22:05;9.85;;;4.45;;
37407;SDS011;24866;50.248;8.252;2022-07-29T00:24:35;9.57;;;3.30;;
37407;SDS011;24866;50.248;8.252;2022-07-29T00:27:05;12.27;;;4.63;;
37407;SDS011;24866;50.248;8.252;2022-07-29T00:29:35;8.30;;;3.35;;
37407;SDS011;24866;50.248;8.252;2022-07-29T00:32:07;8.65;;;3.88;;
37407;SDS011;24866;50.248;8.252;2022-07-29T00:34:36;11.65;;;3.97;;
37407;SDS011;24866;50.248;8.252;2022-07-29T00:37:24;8.20;;;4.97;;
37407;SDS011;24866;50.248;8.252;2022-07-29T00:39:54;7.10;;;4.35;;
37407;SDS011;24866;50.248;8.252;2022-07-29T00:42:24;9.38;;;3.55;;
37407;SDS011;24866;50.248;8.252;2022-07-29T00:44:54;4.93;;;2.97;;
37407;SDS011;24866;50.248;8.252;2022-07-29T00:47:25;9.07;;;4.00;;
37407;SDS011;24866;50.248;8.252;2022-07-29T00:49:55;6.30;;;3.50;;
37407;SDS011;24866;50.248;8.252;2022-07-29T00:52:25;7.45;;;3.50;;
37407;SDS011;24866;50.248;8.252;2022-07-29T00:54:55;9.55;;;4.45;;
37407;SDS011;24866;50.248;8.252;2022-07-29T00:57:25;9.32;;;3.67;;
37407;SDS011;24866;50.248;8.252;2022-07-29T00:59:55;8.90;;;4.40;;
37407;SDS011;24866;50.248;8.252;2022-07-29T01:02:27;8.70;;;4.55;;
37407;SDS011;24866;50.248;8.252;2022-07-29T01:04:56;6.25;;;3.45;;
37407;SDS011;24866;50.248;8.252;2022-07-29T01:07:27;7.63;;;3.28;;
37407;SDS011;24866;50.248;8.252;2022-07-29T01:09:58;5.80;;;3.15;;
37407;SDS011;24866;50.248;8.252;2022-07-29T01:12:28;9.00;;;4.50;;
37407;SDS011;24866;50.248;8.252;2022-07-29T01:15:01;8.18;;;4.07;;
37407;SDS011;24866;50.248;8.252;2022-07-29T01:17:36;7.63;;;3.45;;
37407;SDS011;24866;50.248;8.252;2022-07-29T01:20:10;7.57;;;3.75;;
37407;SDS011;24866;50.248;8.252;2022-07-29T01:22:53;8.32;;;3.58;;
37407;SDS011;24866;50.248;8.252;2022-07-29T01:25:45;7.57;;;4.47;;
37407;SDS011;24866;50.248;8.252;2022-07-29T01:31:31;6.38;;;3.42;;
37407;SDS011;24866;50.248;8.252;2022-07-29T01:34:07;6.28;;;3.67;;
37407;SDS011;24866;50.248;8.252;2022-07-29T01:36:45;6.60;;;3.38;;
37407;SDS011;24866;50.248;8.252;2022-07-29T01:39:19;6.50;;;4.13;;
37407;SDS011;24866;50.248;8.252;2022-07-29T01:41:55;6.22;;;3.53;;
37407;SDS011;24866;50.248;8.252;2022-07-29T01:44:32;5.60;;;3.30;;
37407;SDS011;24866;50.248;8.252;2022-07-29T01:47:09;6.40;;;3.92;;
37407;SDS011;24866;50.248;8.252;2022-07-29T01:49:46;4.60;;;3.55;;
37407;SDS011;24866;50.248;8.252;2022-07-29T01:52:20;7.38;;;4.22;;
37407;SDS011;24866;50.248;8.252;2022-07-29T01:54:55;9.65;;;4.03;;
37407;SDS011;24866;50.248;8.252;2022-07-29T01:57:29;6.45;;;3.92;;
37407;SDS011;24866;50.248;8.252;2022-07-29T02:00:03;8.65;;;4.70;;
37407;SDS011;24866;50.248;8.252;2022-07-29T02:02:31;6.82;;;4.32;;
37407;SDS011;24866;50.248;8.252;2022-07-29T02:05:04;9.00;;;4.75;;
37407;SDS011;24866;50.248;8.252;2022-07-29T02:07:37;7.80;;;5.22;;
37407;SDS011;24866;50.248;8.252;2022-07-29T02:10:08;9.35;;;5.28;;
37407;SDS011;24866;50.248;8.252;2022-07-29T02:12:39;9.15;;;5.45;;
37407;SDS011;24866;50.248;8.252;2022-07-29T02:15:13;9.20;;;5.32;;
37407;SDS011;24866;50.248;8.252;2022-07-29T02:17:45;7.75;;;5.53;;
37407;SDS011;24866;50.248;8.252;2022-07-29T02:20:22;5.57;;;4.60;;
37407;SDS011;24866;50.248;8.252;2022-07-29T02:22:54;7.43;;;4.70;;
37407;SDS011;24866;50.248;8.252;2022-07-29T02:25:26;6.22;;;4.50;;
37407;SDS011;24866;50.248;8.252;2022-07-29T02:27:56;8.10;;;4.30;;
37407;SDS011;24866;50.248;8.252;2022-07-29T02:30:30;7.40;;;4.20;;
37407;SDS011;24866;50.248;8.252;2022-07-29T02:33:00;6.85;;;4.65;;
37407;SDS011;24866;50.248;8.252;2022-07-29T02:35:32;6.47;;;5.50;;
37407;SDS011;24866;50.248;8.252;2022-07-29T02:38:02;8.10;;;4.88;;
37407;SDS011;24866;50.248;8.252;2022-07-29T02:40:50;7.72;;;5.25;;
37407;SDS011;24866;50.248;8.252;2022-07-29T02:43:22;9.18;;;5.47;;
37407;SDS011;24866;50.248;8.252;2022-07-29T02:45:55;7.05;;;5.25;;
37407;SDS011;24866;50.248;8.252;2022-07-29T02:48:27;9.10;;;5.15;;
37407;SDS011;24866;50.248;8.252;2022-07-29T02:51:05;8.05;;;5.55;;
37407;SDS011;24866;50.248;8.252;2022-07-29T02:53:41;6.63;;;4.68;;
37407;SDS011;24866;50.248;8.252;2022-07-29T02:56:12;6.28;;;4.28;;
37407;SDS011;24866;50.248;8.252;2022-07-29T02:58:45;6.40;;;4.53;;
37407;SDS011;24866;50.248;8.252;2022-07-29T03:01:21;8.88;;;5.13;;
37407;SDS011;24866;50.248;8.252;2022-07-29T03:03:53;5.10;;;4.10;;
37407;SDS011;24866;50.248;8.252;2022-07-29T03:06:24;9.40;;;5.15;;
37407;SDS011;24866;50.248;8.252;2022-07-29T03:08:55;7.50;;;4.25;;
37407;SDS011;24866;50.248;8.252;2022-07-29T03:11:28;6.65;;;4.90;;
37407;SDS011;24866;50.248;8.252;2022-07-29T03:13:58;7.93;;;5.22;;
37407;SDS011;24866;50.248;8.252;2022-07-29T03:16:30;8.20;;;5.40;;
37407;SDS011;24866;50.248;8.252;2022-07-29T03:19:00;7.40;;;4.90;;
37407;SDS011;24866;50.248;8.252;2022-07-29T03:21:31;7.65;;;5.07;;
37407;SDS011;24866;50.248;8.252;2022-07-29T03:24:02;10.52;;;5.75;;
37407;SDS011;24866;50.248;8.252;2022-07-29T03:26:32;8.50;;;5.22;;
37407;SDS011;24866;50.248;8.252;2022-07-29T03:29:03;9.57;;;4.18;;
37407;SDS011;24866;50.248;8.252;2022-07-29T03:31:34;7.35;;;4.30;;
37407;SDS011;24866;50.248;8.252;2022-07-29T03:34:04;6.18;;;4.93;;
37407;SDS011;24866;50.248;8.252;2022-07-29T03:36:34;10.30;;;5.22;;
37407;SDS011;24866;50.248;8.252;2022-07-29T03:39:04;8.27;;;4.80;;
37407;SDS011;24866;50.248;8.252;2022-07-29T03:41:35;6.30;;;4.20;;
37407;SDS011;24866;50.248;8.252;2022-07-29T03:44:06;6.50;;;4.13;;
37407;SDS011;24866;50.248;8.252;2022-07-29T03:46:38;11.27;;;4.20;;
37407;SDS011;24866;50.248;8.252;2022-07-29T03:49:08;5.60;;;4.22;;
37407;SDS011;24866;50.248;8.252;2022-07-29T03:51:40;6.30;;;3.80;;
37407;SDS011;24866;50.248;8.252;2022-07-29T03:54:11;8.60;;;4.63;;
37407;SDS011;24866;50.248;8.252;2022-07-29T03:56:42;8.43;;;4.25;;
37407;SDS011;24866;50.248;8.252;2022-07-29T03:59:15;8.90;;;4.75;;
37407;SDS011;24866;50.248;8.252;2022-07-29T04:01:49;5.32;;;3.90;;
37407;SDS011;24866;50.248;8.252;2022-07-29T04:04:19;7.13;;;4.22;;
37407;SDS011;24866;50.248;8.252;2022-07-29T04:06:49;5.93;;;3.90;;
37407;SDS011;24866;50.248;8.252;2022-07-29T04:09:19;9.20;;;5.38;;
37407;SDS011;24866;50.248;8.252;2022-07-29T04:11:49;11.15;;;4.95;;
37407;SDS011;24866;50.248;8.252;2022-07-29T04:14:19;5.93;;;4.70;;
37407;SDS011;24866;50.248;8.252;2022-07-29T04:16:51;5.63;;;4.30;;
37407;SDS011;24866;50.248;8.252;2022-07-29T04:19:21;7.20;;;4.40;;
37407;SDS011;24866;50.248;8.252;2022-07-29T04:21:51;6.38;;;4.07;;
37407;SDS011;24866;50.248;8.252;2022-07-29T04:24:21;7.43;;;4.70;;
37407;SDS011;24866;50.248;8.252;2022-07-29T04:26:51;7.88;;;4.75;;
37407;SDS011;24866;50.248;8.252;2022-07-29T04:29:21;6.05;;;3.92;;
37407;SDS011;24866;50.248;8.252;2022-07-29T04:31:53;6.60;;;4.53;;
37407;SDS011;24866;50.248;8.252;2022-07-29T04:34:23;7.20;;;4.05;;
37407;SDS011;24866;50.248;8.252;2022-07-29T04:36:53;6.60;;;4.30;;
37407;SDS011;24866;50.248;8.252;2022-07-29T04:39:23;8.70;;;5.20;;
37407;SDS011;24866;50.248;8.252;2022-07-29T04:41:53;10.85;;;5.30;;
37407;SDS011;24866;50.248;8.252;2022-07-29T04:44:23;10.07;;;5.95;;
37407;SDS011;24866;50.248;8.252;2022-07-29T04:46:54;7.35;;;4.82;;
37407;SDS011;24866;50.248;8.252;2022-07-29T04:49:24;7.40;;;5.22;;
37407;SDS011;24866;50.248;8.252;2022-07-29T04:51:55;9.40;;;4.63;;
37407;SDS011;24866;50.248;8.252;2022-07-29T04:54:25;7.50;;;4.18;;
37407;SDS011;24866;50.248;8.252;2022-07-29T04:56:55;5.82;;;4.50;;
37407;SDS011;24866;50.248;8.252;2022-07-29T04:59:24;8.52;;;4.82;;
37407;SDS011;24866;50.248;8.252;2022-07-29T05:01:56;7.13;;;4.45;;
37407;SDS011;24866;50.248;8.252;2022-07-29T05:04:26;8.60;;;4.60;;
37407;SDS011;24866;50.248;8.252;2022-07-29T05:06:56;7.47;;;4.70;;
37407;SDS011;24866;50.248;8.252;2022-07-29T05:09:26;5.10;;;3.92;;
37407;SDS011;24866;50.248;8.252;2022-07-29T05:11:56;5.63;;;3.75;;
37407;SDS011;24866;50.248;8.252;2022-07-29T05:14:26;6.93;;;3.90;;
37407;SDS011;24866;50.248;8.252;2022-07-29T05:16:57;6.10;;;3.40;;
37407;SDS011;24866;50.248;8.252;2022-07-29T05:19:27;5.93;;;4.47;;
37407;SDS011;24866;50.248;8.252;2022-07-29T05:21:57;5.70;;;3.63;;
37407;SDS011;24866;50.248;8.252;2022-07-29T05:24:28;7.00;;;3.42;;
37407;SDS011;24866;50.248;8.252;2022-07-29T05:26:58;6.50;;;4.32;;
37407;SDS011;24866;50.248;8.252;2022-07-29T05:29:28;10.15;;;4.28;;
37407;SDS011;24866;50.248;8.252;2022-07-29T05:31:59;7.32;;;4.80;;
37407;SDS011;24866;50.248;8.252;2022-07-29T05:34:29;10.70;;;4.38;;
37407;SDS011;24866;50.248;8.252;2022-07-29T05:36:59;6.55;;;4.32;;
37407;SDS011;24866;50.248;8.252;2022-07-29T05:39:29;11.20;;;4.20;;
37407;SDS011;24866;50.248;8.252;2022-07-29T05:41:59;5.50;;;3.72;;
37407;SDS011;24866;50.248;8.252;2022-07-29T05:44:29;6.80;;;3.65;;
37407;SDS011;24866;50.248;8.252;2022-07-29T05:47:00;9.65;;;4.90;;
37407;SDS011;24866;50.248;8.252;2022-07-29T05:49:30;7.35;;;4.45;;
37407;SDS011;24866;50.248;8.252;2022-07-29T05:52:00;10.23;;;5.05;;
37407;SDS011;24866;50.248;8.252;2022-07-29T05:54:30;6.03;;;3.42;;
37407;SDS011;24866;50.248;8.252;2022-07-29T05:57:00;5.03;;;3.88;;
37407;SDS011;24866;50.248;8.252;2022-07-29T05:59:30;6.18;;;3.38;;
37407;SDS011;24866;50.248;8.252;2022-07-29T06:02:01;5.60;;;3.33;;
37407;SDS011;24866;50.248;8.252;2022-07-29T06:04:33;5.15;;;3.03;;
37407;SDS011;24866;50.248;8.252;2022-07-29T06:07:03;7.20;;;3.20;;
37407;SDS011;24866;50.248;8.252;2022-07-29T06:09:33;6.18;;;3.67;;
37407;SDS011;24866;50.248;8.252;2022-07-29T06:12:03;6.57;;;3.13;;
37407;SDS011;24866;50.248;8.252;2022-07-29T06:14:33;6.97;;;2.97;;
37407;SDS011;24866;50.248;8.252;2022-07-29T06:17:07;5.17;;;3.80;;
37407;SDS011;24866;50.248;8.252;2022-07-29T06:19:39;7.65;;;3.17;;
37407;SDS011;24866;50.248;8.252;2022-07-29T06:22:09;11.50;;;3.60;;
37407;SDS011;24866;50.248;8.252;2022-07-29T06:24:39;6.22;;;3.22;;
37407;SDS011;24866;50.248;8.252;2022-07-29T06:27:11;4.88;;;4.15;;
37407;SDS011;24866;50.248;8.252;2022-07-29T06:29:41;6.30;;;3.15;;
37407;SDS011;24866;50.248;8.252;2022-07-29T06:32:13;7.38;;;3.03;;
37407;SDS011;24866;50.248;8.252;2022-07-29T06:34:43;4.78;;;2.80;;
37407;SDS011;24866;50.248;8.252;2022-07-29T06:37:13;6.53;;;3.17;;
37407;SDS011;24866;50.248;8.252;2022-07-29T06:39:43;6.35;;;3.13;;
37407;SDS011;24866;50.248;8.252;2022-07-29T06:42:13;10.15;;;3.35;;
37407;SDS011;24866;50.248;8.252;2022-07-29T06:44:43;5.30;;;3.20;;
37407;SDS011;24866;50.248;8.252;2022-07-29T06:47:14;6.50;;;3.65;;
37407;SDS011;24866;50.248;8.252;2022-07-29T06:49:44;6.72;;;4.20;;
37407;SDS011;24866;50.248;8.252;2022-07-29T06:52:14;6.63;;;3.45;;
37407;SDS011;24866;50.248;8.252;2022-07-29T06:54:44;8.75;;;3.47;;
37407;SDS011;24866;50.248;8.252;2022-07-29T06:57:16;7.50;;;3.33;;
37407;SDS011;24866;50.248;8.252;2022-07-29T06:59:46;8.95;;;3.00;;
37407;SDS011;24866;50.248;8.252;2022-07-29T07:02:17;10.05;;;3.95;;
37407;SDS011;24866;50.248;8.252;2022-07-29T07:04:47;5.07;;;3.45;;
37407;SDS011;24866;50.248;8.252;2022-07-29T07:07:17;5.05;;;3.00;;
37407;SDS011;24866;50.248;8.252;2022-07-29T07:09:47;6.35;;;3.05;;
37407;SDS011;24866;50.248;8.252;2022-07-29T07:12:17;8.02;;;3.40;;
37407;SDS011;24866;50.248;8.252;2022-07-29T07:14:47;5.80;;;3.15;;
37407;SDS011;24866;50.248;8.252;2022-07-29T07:17:18;7.10;;;3.30;;
37407;SDS011;24866;50.248;8.252;2022-07-29T07:19:48;5.88;;;3.30;;
37407;SDS011;24866;50.248;8.252;2022-07-29T07:22:18;5.53;;;3.40;;
37407;SDS011;24866;50.248;8.252;2022-07-29T07:24:48;16.55;;;3.80;;
37407;SDS011;24866;50.248;8.252;2022-07-29T07:27:18;4.35;;;2.70;;
37407;SDS011;24866;50.248;8.252;2022-07-29T07:29:48;6.40;;;3.45;;
37407;SDS011;24866;50.248;8.252;2022-07-29T07:32:19;6.32;;;3.30;;
37407;SDS011;24866;50.248;8.252;2022-07-29T07:34:49;5.30;;;3.70;;
37407;SDS011;24866;50.248;8.252;2022-07-29T07:37:19;4.90;;;3.33;;
37407;SDS011;24866;50.248;8.252;2022-07-29T07:39:49;5.40;;;3.25;;
37407;SDS011;24866;50.248;8.252;2022-07-29T07:42:19;8.85;;;3.47;;
37407;SDS011;24866;50.248;8.252;2022-07-29T07:44:49;5.32;;;2.72;;
37407;SDS011;24866;50.248;8.252;2022-07-29T07:47:21;5.28;;;2.90;;
37407;SDS011;24866;50.248;8.252;2022-07-29T07:49:52;6.07;;;2.72;;
37407;SDS011;24866;50.248;8.252;2022-07-29T07:52:22;6.10;;;2.72;;
37407;SDS011;24866;50.248;8.252;2022-07-29T07:54:52;8.25;;;3.45;;
37407;SDS011;24866;50.248;8.252;2022-07-29T07:57:22;7.35;;;3.00;;
37407;SDS011;24866;50.248;8.252;2022-07-29T07:59:52;5.60;;;3.00;;
37407;SDS011;24866;50.248;8.252;2022-07-29T08:02:24;6.88;;;3.20;;
37407;SDS011;24866;50.248;8.252;2022-07-29T08:04:53;7.40;;;2.92;;
37407;SDS011;24866;50.248;8.252;2022-07-29T08:07:23;6.57;;;3.22;;
37407;SDS011;24866;50.248;8.252;2022-07-29T08:09:53;5.97;;;2.63;;
37407;SDS011;24866;50.248;8.252;2022-07-29T08:12:23;7.43;;;3.38;;
37407;SDS011;24866;50.248;8.252;2022-07-29T08:14:53;7.53;;;3.60;;
37407;SDS011;24866;50.248;8.252;2022-07-29T08:17:25;8.10;;;3.67;;
37407;SDS011;24866;50.248;8.252;2022-07-29T08:19:54;5.82;;;2.88;;
37407;SDS011;24866;50.248;8.252;2022-07-29T08:22:24;5.20;;;2.92;;
37407;SDS011;24866;50.248;8.252;2022-07-29T08:24:54;7.97;;;3.00;;
37407;SDS011;24866;50.248;8.252;2022-07-29T08:27:24;6.25;;;2.65;;
37407;SDS011;24866;50.248;8.252;2022-07-29T08:29:57;7.70;;;2.50;;
37407;SDS011;24866;50.248;8.252;2022-07-29T08:32:28;7.88;;;3.00;;
37407;SDS011;24866;50.248;8.252;2022-07-29T08:34:59;6.53;;;3.15;;
37407;SDS011;24866;50.248;8.252;2022-07-29T08:37:29;5.32;;;2.55;;
37407;SDS011;24866;50.248;8.252;2022-07-29T08:40:00;4.70;;;2.40;;
37407;SDS011;24866;50.248;8.252;2022-07-29T08:42:30;7.15;;;2.80;;
37407;SDS011;24866;50.248;8.252;2022-07-29T08:45:00;8.88;;;2.85;;
37407;SDS011;24866;50.248;8.252;2022-07-29T08:47:32;5.78;;;2.80;;
37407;SDS011;24866;50.248;8.252;2022-07-29T08:50:05;8.48;;;3.17;;
37407;SDS011;24866;50.248;8.252;2022-07-29T08:52:36;4.78;;;2.40;;
37407;SDS011;24866;50.248;8.252;2022-07-29T08:55:08;5.87;;;2.93;;
37407;SDS011;24866;50.248;8.252;2022-07-29T08:57:39;4.75;;;2.40;;
37407;SDS011;24866;50.248;8.252;2022-07-29T09:00:09;7.30;;;2.92;;
37407;SDS011;24866;50.248;8.252;2022-07-29T09:02:41;10.38;;;3.30;;
37407;SDS011;24866;50.248;8.252;2022-07-29T09:05:15;6.65;;;2.63;;
37407;SDS011;24866;50.248;8.252;2022-07-29T09:07:45;6.68;;;2.95;;
37407;SDS011;24866;50.248;8.252;2022-07-29T09:10:16;4.00;;;2.55;;
37407;SDS011;24866;50.248;8.252;2022-07-29T09:12:46;6.55;;;3.05;;
37407;SDS011;24866;50.248;8.252;2022-07-29T09:15:17;6.65;;;2.50;;
37407;SDS011;24866;50.248;8.252;2022-07-29T09:17:48;5.28;;;2.60;;
37407;SDS011;24866;50.248;8.252;2022-07-29T09:20:19;5.18;;;2.80;;
37407;SDS011;24866;50.248;8.252;2022-07-29T09:22:51;5.93;;;2.80;;
37407;SDS011;24866;50.248;8.252;2022-07-29T09:25:34;7.00;;;2.65;;
37407;SDS011;24866;50.248;8.252;2022-07-29T09:28:07;7.53;;;3.25;;
37407;SDS011;24866;50.248;8.252;2022-07-29T09:30:39;4.47;;;2.50;;
37407;SDS011;24866;50.248;8.252;2022-07-29T09:33:21;5.72;;;2.95;;
37407;SDS011;24866;50.248;8.252;2022-07-29T09:36:02;5.95;;;2.75;;
37407;SDS011;24866;50.248;8.252;2022-07-29T09:38:33;5.38;;;2.28;;
37407;SDS011;24866;50.248;8.252;2022-07-29T09:41:04;5.15;;;2.30;;
37407;SDS011;24866;50.248;8.252;2022-07-29T09:43:36;3.63;;;2.15;;
37407;SDS011;24866;50.248;8.252;2022-07-29T09:46:09;5.43;;;2.97;;
37407;SDS011;24866;50.248;8.252;2022-07-29T09:48:41;7.10;;;2.75;;
37407;SDS011;24866;50.248;8.252;2022-07-29T09:51:18;4.38;;;2.40;;
37407;SDS011;24866;50.248;8.252;2022-07-29T09:53:48;3.88;;;2.40;;
37407;SDS011;24866;50.248;8.252;2022-07-29T09:56:18;9.50;;;3.42;;
37407;SDS011;24866;50.248;8.252;2022-07-29T09:58:49;4.18;;;2.47;;
37407;SDS011;24866;50.248;8.252;2022-07-29T10:01:34;6.32;;;2.78;;
37407;SDS011;24866;50.248;8.252;2022-07-29T10:04:06;5.97;;;2.85;;
37407;SDS011;24866;50.248;8.252;2022-07-29T10:06:38;4.85;;;2.97;;
37407;SDS011;24866;50.248;8.252;2022-07-29T10:09:25;5.38;;;2.90;;
37407;SDS011;24866;50.248;8.252;2022-07-29T10:12:06;5.82;;;2.80;;
37407;SDS011;24866;50.248;8.252;2022-07-29T10:14:39;6.20;;;3.20;;
37407;SDS011;24866;50.248;8.252;2022-07-29T10:17:09;4.00;;;2.55;;
37407;SDS011;24866;50.248;8.252;2022-07-29T10:19:41;4.60;;;2.55;;
37407;SDS011;24866;50.248;8.252;2022-07-29T10:22:11;7.20;;;2.80;;
37407;SDS011;24866;50.248;8.252;2022-07-29T10:24:41;6.47;;;3.38;;
37407;SDS011;24866;50.248;8.252;2022-07-29T10:27:11;5.82;;;2.22;;
37407;SDS011;24866;50.248;8.252;2022-07-29T10:29:41;6.25;;;2.42;;
37407;SDS011;24866;50.248;8.252;2022-07-29T10:32:17;7.80;;;2.75;;
37407;SDS011;24866;50.248;8.252;2022-07-29T10:35:06;5.75;;;3.10;;
37407;SDS011;24866;50.248;8.252;2022-07-29T10:37:52;6.05;;;2.88;;
37407;SDS011;24866;50.248;8.252;2022-07-29T10:40:43;7.85;;;2.63;;
37407;SDS011;24866;50.248;8.252;2022-07-29T10:43:38;4.57;;;2.30;;
37407;SDS011;24866;50.248;8.252;2022-07-29T10:46:12;4.80;;;2.70;;
37407;SDS011;24866;50.248;8.252;2022-07-29T10:54:43;5.15;;;2.95;;
37407;SDS011;24866;50.248;8.252;2022-07-29T10:57:16;9.93;;;3.30;;
37407;SDS011;24866;50.248;8.252;2022-07-29T11:02:55;7.22;;;3.80;;
37407;SDS011;24866;50.248;8.252;2022-07-29T11:05:26;10.77;;;3.40;;
37407;SDS011;24866;50.248;8.252;2022-07-29T11:08:20;6.70;;;2.90;;
37407;SDS011;24866;50.248;8.252;2022-07-29T11:14:01;5.88;;;3.20;;
37407;SDS011;24866;50.248;8.252;2022-07-29T11:19:31;8.80;;;3.45;;
37407;SDS011;24866;50.248;8.252;2022-07-29T11:22:01;6.68;;;3.38;;
37407;SDS011;24866;50.248;8.252;2022-07-29T11:24:33;5.85;;;3.13;;
37407;SDS011;24866;50.248;8.252;2022-07-29T11:27:16;8.10;;;3.10;;
37407;SDS011;24866;50.248;8.252;2022-07-29T11:29:48;5.10;;;3.05;;
37407;SDS011;24866;50.248;8.252;2022-07-29T11:32:20;7.95;;;3.53;;
37407;SDS011;24866;50.248;8.252;2022-07-29T11:37:42;5.00;;;2.90;;
37407;SDS011;24866;50.248;8.252;2022-07-29T11:40:17;5.28;;;3.05;;
37407;SDS011;24866;50.248;8.252;2022-07-29T11:42:50;7.85;;;3.42;;
37407;SDS011;24866;50.248;8.252;2022-07-29T11:45:25;3.85;;;2.47;;
37407;SDS011;24866;50.248;8.252;2022-07-29T11:48:17;8.25;;;2.75;;
37407;SDS011;24866;50.248;8.252;2022-07-29T11:50:47;6.43;;;2.72;;
37407;SDS011;24866;50.248;8.252;2022-07-29T11:53:18;3.65;;;2.40;;
37407;SDS011;24866;50.248;8.252;2022-07-29T11:55:53;5.70;;;2.92;;
37407;SDS011;24866;50.248;8.252;2022-07-29T11:58:24;4.85;;;2.80;;
37407;SDS011;24866;50.248;8.252;2022-07-29T12:00:54;5.45;;;3.15;;
37407;SDS011;24866;50.248;8.252;2022-07-29T12:03:26;5.22;;;3.00;;
37407;SDS011;24866;50.248;8.252;2022-07-29T12:05:58;5.38;;;3.05;;
37407;SDS011;24866;50.248;8.252;2022-07-29T12:08:28;4.90;;;2.95;;
37407;SDS011;24866;50.248;8.252;2022-07-29T12:11:00;5.15;;;3.10;;
37407;SDS011;24866;50.248;8.252;2022-07-29T12:13:30;5.17;;;2.87;;
37407;SDS011;24866;50.248;8.252;2022-07-29T12:16:08;5.80;;;3.00;;
37407;SDS011;24866;50.248;8.252;2022-07-29T12:18:38;6.03;;;3.42;;
37407;SDS011;24866;50.248;8.252;2022-07-29T12:21:08;7.03;;;2.70;;
37407;SDS011;24866;50.248;8.252;2022-07-29T12:23:38;4.07;;;2.60;;
37407;SDS011;24866;50.248;8.252;2022-07-29T12:26:23;6.68;;;3.05;;
37407;SDS011;24866;50.248;8.252;2022-07-29T12:28:53;5.45;;;3.17;;
37407;SDS011;24866;50.248;8.252;2022-07-29T12:31:24;5.82;;;3.80;;
37407;SDS011;24866;50.248;8.252;2022-07-29T12:33:54;5.80;;;2.72;;
37407;SDS011;24866;50.248;8.252;2022-07-29T12:36:24;4.07;;;2.65;;
37407;SDS011;24866;50.248;8.252;2022-07-29T12:38:54;4.20;;;2.60;;
37407;SDS011;24866;50.248;8.252;2022-07-29T12:41:26;6.57;;;2.90;;
37407;SDS011;24866;50.248;8.252;2022-07-29T12:43:57;8.00;;;2.83;;
37407;SDS011;24866;50.248;8.252;2022-07-29T12:46:27;5.70;;;2.80;;
37407;SDS011;24866;50.248;8.252;2022-07-29T12:48:57;5.68;;;3.50;;
37407;SDS011;24866;50.248;8.252;2022-07-29T12:51:31;8.00;;;3.22;;
37407;SDS011;24866;50.248;8.252;2022-07-29T12:54:02;5.97;;;3.03;;
37407;SDS011;24866;50.248;8.252;2022-07-29T12:56:36;3.88;;;2.80;;
37407;SDS011;24866;50.248;8.252;2022-07-29T12:59:13;6.03;;;3.25;;
37407;SDS011;24866;50.248;8.252;2022-07-29T13:01:44;4.63;;;2.90;;
37407;SDS011;24866;50.248;8.252;2022-07-29T13:04:25;5.63;;;2.90;;
37407;SDS011;24866;50.248;8.252;2022-07-29T13:07:00;5.03;;;3.00;;
37407;SDS011;24866;50.248;8.252;2022-07-29T13:09:38;5.30;;;2.75;;
37407;SDS011;24866;50.248;8.252;2022-07-29T13:12:11;4.20;;;2.90;;
37407;SDS011;24866;50.248;8.252;2022-07-29T13:14:44;6.70;;;3.10;;
37407;SDS011;24866;50.248;8.252;2022-07-29T13:17:16;4.40;;;2.75;;
37407;SDS011;24866;50.248;8.252;2022-07-29T13:19:49;5.25;;;2.70;;
37407;SDS011;24866;50.248;8.252;2022-07-29T13:22:22;8.65;;;3.38;;
37407;SDS011;24866;50.248;8.252;2022-07-29T13:24:53;7.85;;;3.78;;
37407;SDS011;24866;50.248;8.252;2022-07-29T13:27:26;14.05;;;4.05;;
37407;SDS011;24866;50.248;8.252;2022-07-29T13:29:57;8.05;;;4.25;;
37407;SDS011;24866;50.248;8.252;2022-07-29T13:32:29;10.60;;;5.65;;
37407;SDS011;24866;50.248;8.252;2022-07-29T13:35:00;10.18;;;5.40;;
37407;SDS011;24866;50.248;8.252;2022-07-29T13:37:31;14.27;;;5.77;;
37407;SDS011;24866;50.248;8.252;2022-07-29T13:40:03;10.52;;;5.20;;
37407;SDS011;24866;50.248;8.252;2022-07-29T13:42:35;10.02;;;5.22;;
37407;SDS011;24866;50.248;8.252;2022-07-29T13:45:06;13.95;;;6.07;;
37407;SDS011;24866;50.248;8.252;2022-07-29T13:50:08;15.63;;;6.00;;
37407;SDS011;24866;50.248;8.252;2022-07-29T13:52:39;9.30;;;5.93;;
37407;SDS011;24866;50.248;8.252;2022-07-29T13:55:09;10.57;;;4.50;;
37407;SDS011;24866;50.248;8.252;2022-07-29T13:57:40;9.25;;;4.57;;
37407;SDS011;24866;50.248;8.252;2022-07-29T14:00:11;11.77;;;4.45;;
37407;SDS011;24866;50.248;8.252;2022-07-29T14:02:43;14.95;;;5.70;;
37407;SDS011;24866;50.248;8.252;2022-07-29T14:05:12;11.15;;;5.28;;
37407;SDS011;24866;50.248;8.252;2022-07-29T14:07:42;11.90;;;6.10;;
37407;SDS011;24866;50.248;8.252;2022-07-29T14:10:12;5.88;;;3.80;;
37407;SDS011;24866;50.248;8.252;2022-07-29T14:12:44;7.25;;;4.40;;
37407;SDS011;24866;50.248;8.252;2022-07-29T14:15:14;10.40;;;4.28;;
37407;SDS011;24866;50.248;8.252;2022-07-29T14:17:45;8.45;;;3.92;;
37407;SDS011;24866;50.248;8.252;2022-07-29T14:20:15;7.63;;;4.80;;
37407;SDS011;24866;50.248;8.252;2022-07-29T14:22:45;8.10;;;4.00;;
37407;SDS011;24866;50.248;8.252;2022-07-29T14:25:16;6.93;;;3.88;;
37407;SDS011;24866;50.248;8.252;2022-07-29T14:27:47;8.93;;;3.40;;
37407;SDS011;24866;50.248;8.252;2022-07-29T14:30:18;8.23;;;4.05;;
37407;SDS011;24866;50.248;8.252;2022-07-29T14:32:47;7.13;;;3.70;;
37407;SDS011;24866;50.248;8.252;2022-07-29T14:35:17;5.78;;;3.60;;
37407;SDS011;24866;50.248;8.252;2022-07-29T14:37:47;6.82;;;3.63;;
37407;SDS011;24866;50.248;8.252;2022-07-29T14:40:17;9.90;;;4.00;;
37407;SDS011;24866;50.248;8.252;2022-07-29T14:42:49;8.35;;;3.85;;
37407;SDS011;24866;50.248;8.252;2022-07-29T14:45:19;7.40;;;3.65;;
37407;SDS011;24866;50.248;8.252;2022-07-29T14:47:49;6.30;;;3.88;;
37407;SDS011;24866;50.248;8.252;2022-07-29T14:50:19;5.43;;;3.50;;
37407;SDS011;24866;50.248;8.252;2022-07-29T14:52:49;7.40;;;4.18;;
37407;SDS011;24866;50.248;8.252;2022-07-29T14:55:19;6.00;;;3.78;;
37407;SDS011;24866;50.248;8.252;2022-07-29T14:57:51;5.05;;;3.47;;
37407;SDS011;24866;50.248;8.252;2022-07-29T15:00:22;8.52;;;4.35;;
37407;SDS011;24866;50.248;8.252;2022-07-29T15:02:52;9.10;;;5.40;;
37407;SDS011;24866;50.248;8.252;2022-07-29T15:05:22;8.20;;;5.25;;
37407;SDS011;24866;50.248;8.252;2022-07-29T15:07:52;7.22;;;4.22;;
37407;SDS011;24866;50.248;8.252;2022-07-29T15:10:22;9.00;;;5.47;;
37407;SDS011;24866;50.248;8.252;2022-07-29T15:12:55;8.07;;;5.13;;
37407;SDS011;24866;50.248;8.252;2022-07-29T15:15:26;9.77;;;6.43;;
37407;SDS011;24866;50.248;8.252;2022-07-29T15:17:56;8.88;;;5.25;;
37407;SDS011;24866;50.248;8.252;2022-07-29T15:20:26;7.80;;;4.38;;
37407;SDS011;24866;50.248;8.252;2022-07-29T15:22:56;7.97;;;5.55;;
37407;SDS011;24866;50.248;8.252;2022-07-29T15:25:26;6.00;;;4.18;;
37407;SDS011;24866;50.248;8.252;2022-07-29T15:27:58;7.57;;;5.25;;
37407;SDS011;24866;50.248;8.252;2022-07-29T15:30:30;6.88;;;5.20;;
37407;SDS011;24866;50.248;8.252;2022-07-29T15:33:01;6.65;;;4.32;;
37407;SDS011;24866;50.248;8.252;2022-07-29T15:35:32;6.30;;;4.57;;
37407;SDS011;24866;50.248;8.252;2022-07-29T15:38:02;5.75;;;4.22;;